sensor_id;sensor_type;location;lat;lon;timestamp;temperature;humidity
80380;DHT22;69690;48.158;17.134;2023-07-09T00:03:01;23.00;51.10
80380;DHT22;69690;48.158;17.134;2023-07-09T00:08:02;23.10;51.30
80380;DHT22;69690;48.158;17.134;2023-07-09T00:13:03;23.00;52.40
80380;DHT22;69690;48.158;17.134;2023-07-09T00:18:05;23.00;52.00
80380;DHT22;69690;48.158;17.134;2023-07-09T00:23:07;22.90;51.70
80380;DHT22;69690;48.158;17.134;2023-07-09T00:28:18;22.90;52.60
80380;DHT22;69690;48.158;17.134;2023-07-09T00:33:20;22.80;52.70
80380;DHT22;69690;48.158;17.134;2023-07-09T00:38:23;22.80;53.00
80380;DHT22;69690;48.158;17.134;2023-07-09T00:43:24;22.70;52.90
80380;DHT22;69690;48.158;17.134;2023-07-09T00:48:30;22.70;53.60
80380;DHT22;69690;48.158;17.134;2023-07-09T00:53:33;22.50;53.50
80380;DHT22;69690;48.158;17.134;2023-07-09T00:58:36;22.40;54.50
80380;DHT22;69690;48.158;17.134;2023-07-09T01:03:42;22.30;55.20
80380;DHT22;69690;48.158;17.134;2023-07-09T01:08:47;22.20;55.40
80380;DHT22;69690;48.158;17.134;2023-07-09T01:13:57;22.20;54.70
80380;DHT22;69690;48.158;17.134;2023-07-09T01:19:04;22.10;54.70
80380;DHT22;69690;48.158;17.134;2023-07-09T01:24:12;21.90;55.30
80380;DHT22;69690;48.158;17.134;2023-07-09T01:29:15;21.90;56.00
80380;DHT22;69690;48.158;17.134;2023-07-09T01:34:16;21.90;55.90
80380;DHT22;69690;48.158;17.134;2023-07-09T01:39:18;21.80;56.10
80380;DHT22;69690;48.158;17.134;2023-07-09T01:44:19;21.70;56.10
80380;DHT22;69690;48.158;17.134;2023-07-09T01:49:21;21.60;56.00
80380;DHT22;69690;48.158;17.134;2023-07-09T01:54:22;21.50;56.50
80380;DHT22;69690;48.158;17.134;2023-07-09T01:59:24;21.40;56.60
80380;DHT22;69690;48.158;17.134;2023-07-09T02:04:28;21.40;56.80
80380;DHT22;69690;48.158;17.134;2023-07-09T02:09:29;21.30;56.80
80380;DHT22;69690;48.158;17.134;2023-07-09T02:14:30;21.30;57.00
80380;DHT22;69690;48.158;17.134;2023-07-09T02:19:32;21.30;57.40
80380;DHT22;69690;48.158;17.134;2023-07-09T02:24:33;21.30;56.80
80380;DHT22;69690;48.158;17.134;2023-07-09T02:29:35;21.30;56.40
80380;DHT22;69690;48.158;17.134;2023-07-09T02:34:36;21.30;56.50
80380;DHT22;69690;48.158;17.134;2023-07-09T02:39:37;21.30;57.20
80380;DHT22;69690;48.158;17.134;2023-07-09T02:44:39;21.10;56.80
80380;DHT22;69690;48.158;17.134;2023-07-09T02:49:41;21.00;57.20
80380;DHT22;69690;48.158;17.134;2023-07-09T02:54:43;21.00;57.60
80380;DHT22;69690;48.158;17.134;2023-07-09T02:59:44;21.00;56.70
80380;DHT22;69690;48.158;17.134;2023-07-09T03:04:46;20.90;57.50
80380;DHT22;69690;48.158;17.134;2023-07-09T03:09:47;20.70;57.70
80380;DHT22;69690;48.158;17.134;2023-07-09T03:14:49;20.60;58.10
80380;DHT22;69690;48.158;17.134;2023-07-09T03:19:50;20.60;58.30
80380;DHT22;69690;48.158;17.134;2023-07-09T03:24:51;20.60;58.30
80380;DHT22;69690;48.158;17.134;2023-07-09T03:29:53;20.70;58.40
80380;DHT22;69690;48.158;17.134;2023-07-09T03:34:54;20.70;58.60
80380;DHT22;69690;48.158;17.134;2023-07-09T03:39:55;20.70;58.00
80380;DHT22;69690;48.158;17.134;2023-07-09T03:44:56;20.70;58.10
80380;DHT22;69690;48.158;17.134;2023-07-09T03:49:57;20.80;57.60
80380;DHT22;69690;48.158;17.134;2023-07-09T03:54:59;21.00;57.40
80380;DHT22;69690;48.158;17.134;2023-07-09T04:00:04;21.10;57.10
80380;DHT22;69690;48.158;17.134;2023-07-09T04:05:15;21.10;57.40
80380;DHT22;69690;48.158;17.134;2023-07-09T04:10:18;21.20;57.50
80380;DHT22;69690;48.158;17.134;2023-07-09T04:15:20;21.30;57.20
80380;DHT22;69690;48.158;17.134;2023-07-09T04:20:21;21.30;57.00
80380;DHT22;69690;48.158;17.134;2023-07-09T04:25:23;21.30;56.90
80380;DHT22;69690;48.158;17.134;2023-07-09T04:30:24;21.20;56.30
80380;DHT22;69690;48.158;17.134;2023-07-09T04:35:25;21.30;56.50
80380;DHT22;69690;48.158;17.134;2023-07-09T04:40:27;21.40;55.60
80380;DHT22;69690;48.158;17.134;2023-07-09T04:45:28;21.60;54.40
80380;DHT22;69690;48.158;17.134;2023-07-09T04:50:29;21.80;53.20
80380;DHT22;69690;48.158;17.134;2023-07-09T04:55:30;22.00;52.90
80380;DHT22;69690;48.158;17.134;2023-07-09T05:00:32;22.10;52.40
80380;DHT22;69690;48.158;17.134;2023-07-09T05:05:34;22.30;52.30
80380;DHT22;69690;48.158;17.134;2023-07-09T05:10:41;22.40;52.10
80380;DHT22;69690;48.158;17.134;2023-07-09T05:15:45;22.50;51.60
80380;DHT22;69690;48.158;17.134;2023-07-09T05:20:47;22.70;51.20
80380;DHT22;69690;48.158;17.134;2023-07-09T05:25:48;22.70;50.70
80380;DHT22;69690;48.158;17.134;2023-07-09T05:30:49;22.80;50.90
80380;DHT22;69690;48.158;17.134;2023-07-09T05:35:51;22.90;49.50
80380;DHT22;69690;48.158;17.134;2023-07-09T05:41:02;22.90;49.90
80380;DHT22;69690;48.158;17.134;2023-07-09T05:46:05;23.10;49.60
80380;DHT22;69690;48.158;17.134;2023-07-09T05:51:07;23.20;49.50
80380;DHT22;69690;48.158;17.134;2023-07-09T05:56:08;23.20;49.30
80380;DHT22;69690;48.158;17.134;2023-07-09T06:01:09;23.30;49.90
80380;DHT22;69690;48.158;17.134;2023-07-09T06:06:10;23.40;49.50
80380;DHT22;69690;48.158;17.134;2023-07-09T06:11:12;23.50;49.00
80380;DHT22;69690;48.158;17.134;2023-07-09T06:16:13;23.60;49.50
80380;DHT22;69690;48.158;17.134;2023-07-09T06:21:14;23.70;49.20
80380;DHT22;69690;48.158;17.134;2023-07-09T06:26:16;23.90;48.70
80380;DHT22;69690;48.158;17.134;2023-07-09T06:31:17;24.00;48.60
80380;DHT22;69690;48.158;17.134;2023-07-09T06:36:21;24.10;48.40
80380;DHT22;69690;48.158;17.134;2023-07-09T06:41:23;24.40;48.30
80380;DHT22;69690;48.158;17.134;2023-07-09T06:46:24;24.40;47.90
80380;DHT22;69690;48.158;17.134;2023-07-09T06:51:26;24.50;47.30
80380;DHT22;69690;48.158;17.134;2023-07-09T06:56:27;24.60;47.10
80380;DHT22;69690;48.158;17.134;2023-07-09T07:01:28;24.70;46.30
80380;DHT22;69690;48.158;17.134;2023-07-09T07:06:29;24.70;46.40
80380;DHT22;69690;48.158;17.134;2023-07-09T07:11:31;25.00;46.00
80380;DHT22;69690;48.158;17.134;2023-07-09T07:16:33;25.10;45.80
80380;DHT22;69690;48.158;17.134;2023-07-09T07:21:34;25.30;45.60
80380;DHT22;69690;48.158;17.134;2023-07-09T07:26:35;25.50;45.60
80380;DHT22;69690;48.158;17.134;2023-07-09T07:31:36;25.50;45.30
80380;DHT22;69690;48.158;17.134;2023-07-09T07:36:38;25.70;44.80
80380;DHT22;69690;48.158;17.134;2023-07-09T07:41:40;26.00;45.10
80380;DHT22;69690;48.158;17.134;2023-07-09T07:46:41;26.10;44.20
80380;DHT22;69690;48.158;17.134;2023-07-09T07:51:42;26.40;44.20
80380;DHT22;69690;48.158;17.134;2023-07-09T07:56:45;26.50;43.30
80380;DHT22;69690;48.158;17.134;2023-07-09T08:01:46;26.50;43.20
80380;DHT22;69690;48.158;17.134;2023-07-09T08:06:47;26.70;43.30
80380;DHT22;69690;48.158;17.134;2023-07-09T08:11:48;27.00;43.80
80380;DHT22;69690;48.158;17.134;2023-07-09T08:16:50;27.30;42.40
80380;DHT22;69690;48.158;17.134;2023-07-09T08:21:51;27.30;42.80
80380;DHT22;69690;48.158;17.134;2023-07-09T08:26:53;27.40;42.30
80380;DHT22;69690;48.158;17.134;2023-07-09T08:31:55;27.50;42.50
80380;DHT22;69690;48.158;17.134;2023-07-09T08:36:56;27.90;42.70
80380;DHT22;69690;48.158;17.134;2023-07-09T08:42:02;28.10;42.00
80380;DHT22;69690;48.158;17.134;2023-07-09T08:47:17;28.00;41.80
80380;DHT22;69690;48.158;17.134;2023-07-09T08:52:46;28.10;41.50
80380;DHT22;69690;48.158;17.134;2023-07-09T08:57:54;28.20;41.80
80380;DHT22;69690;48.158;17.134;2023-07-09T09:03:05;28.50;42.00
80380;DHT22;69690;48.158;17.134;2023-07-09T09:13:43;28.60;40.90
80380;DHT22;69690;48.158;17.134;2023-07-09T09:18:47;29.10;40.70
80380;DHT22;69690;48.158;17.134;2023-07-09T09:23:58;29.30;39.90
80380;DHT22;69690;48.158;17.134;2023-07-09T09:29:24;29.50;38.60
80380;DHT22;69690;48.158;17.134;2023-07-09T09:34:29;29.40;38.00
80380;DHT22;69690;48.158;17.134;2023-07-09T09:39:31;29.70;35.20
80380;DHT22;69690;48.158;17.134;2023-07-09T09:44:32;29.90;34.30
80380;DHT22;69690;48.158;17.134;2023-07-09T09:49:41;30.00;33.70
80380;DHT22;69690;48.158;17.134;2023-07-09T09:54:55;30.10;35.00
80380;DHT22;69690;48.158;17.134;2023-07-09T10:00:05;30.10;34.40
80380;DHT22;69690;48.158;17.134;2023-07-09T10:05:18;30.00;35.30
80380;DHT22;69690;48.158;17.134;2023-07-09T10:10:24;30.30;34.70
80380;DHT22;69690;48.158;17.134;2023-07-09T10:21:30;36.00;28.20
80380;DHT22;69690;48.158;17.134;2023-07-09T10:26:48;37.10;27.80
80380;DHT22;69690;48.158;17.134;2023-07-09T10:32:26;37.80;26.90
80380;DHT22;69690;48.158;17.134;2023-07-09T10:42:57;37.50;26.10
80380;DHT22;69690;48.158;17.134;2023-07-09T10:48:10;37.40;26.20
80380;DHT22;69690;48.158;17.134;2023-07-09T10:53:58;38.40;25.30
80380;DHT22;69690;48.158;17.134;2023-07-09T10:59:13;38.90;24.20
80380;DHT22;69690;48.158;17.134;2023-07-09T11:04:42;39.20;23.90
80380;DHT22;69690;48.158;17.134;2023-07-09T11:09:51;39.00;23.90
80380;DHT22;69690;48.158;17.134;2023-07-09T11:15:00;37.00;25.10
80380;DHT22;69690;48.158;17.134;2023-07-09T11:25:29;38.80;24.50
80380;DHT22;69690;48.158;17.134;2023-07-09T11:36:06;38.10;24.40
80380;DHT22;69690;48.158;17.134;2023-07-09T11:46:44;39.40;23.80
80380;DHT22;69690;48.158;17.134;2023-07-09T11:52:20;40.00;23.70
80380;DHT22;69690;48.158;17.134;2023-07-09T11:57:28;38.00;24.20
80380;DHT22;69690;48.158;17.134;2023-07-09T12:02:32;35.90;26.00
80380;DHT22;69690;48.158;17.134;2023-07-09T12:07:35;34.80;26.10
80380;DHT22;69690;48.158;17.134;2023-07-09T12:12:36;34.50;27.20
80380;DHT22;69690;48.158;17.134;2023-07-09T12:17:42;35.50;26.40
80380;DHT22;69690;48.158;17.134;2023-07-09T12:22:44;36.50;25.60
80380;DHT22;69690;48.158;17.134;2023-07-09T12:27:45;37.30;24.70
80380;DHT22;69690;48.158;17.134;2023-07-09T12:32:48;37.30;24.60
80380;DHT22;69690;48.158;17.134;2023-07-09T12:37:51;37.70;24.40
80380;DHT22;69690;48.158;17.134;2023-07-09T12:42:59;38.50;23.80
80380;DHT22;69690;48.158;17.134;2023-07-09T12:48:00;38.30;23.20
80380;DHT22;69690;48.158;17.134;2023-07-09T12:53:16;38.50;22.80
80380;DHT22;69690;48.158;17.134;2023-07-09T12:58:33;37.80;23.40
80380;DHT22;69690;48.158;17.134;2023-07-09T13:03:39;37.80;23.20
80380;DHT22;69690;48.158;17.134;2023-07-09T13:08:42;37.50;23.00
80380;DHT22;69690;48.158;17.134;2023-07-09T13:13:59;37.20;23.10
80380;DHT22;69690;48.158;17.134;2023-07-09T13:19:04;37.30;24.30
80380;DHT22;69690;48.158;17.134;2023-07-09T13:24:19;37.30;23.20
80380;DHT22;69690;48.158;17.134;2023-07-09T13:29:23;36.80;24.40
80380;DHT22;69690;48.158;17.134;2023-07-09T13:34:26;36.40;24.10
80380;DHT22;69690;48.158;17.134;2023-07-09T13:39:28;36.40;24.50
80380;DHT22;69690;48.158;17.134;2023-07-09T13:44:30;36.10;24.60
80380;DHT22;69690;48.158;17.134;2023-07-09T13:49:36;36.10;24.60
80380;DHT22;69690;48.158;17.134;2023-07-09T13:54:38;36.10;25.00
80380;DHT22;69690;48.158;17.134;2023-07-09T13:59:39;35.90;25.00
80380;DHT22;69690;48.158;17.134;2023-07-09T14:04:40;35.60;25.20
80380;DHT22;69690;48.158;17.134;2023-07-09T14:09:41;35.50;25.40
80380;DHT22;69690;48.158;17.134;2023-07-09T14:14:43;35.20;26.00
80380;DHT22;69690;48.158;17.134;2023-07-09T14:19:46;35.10;25.70
80380;DHT22;69690;48.158;17.134;2023-07-09T14:24:47;35.50;26.10
80380;DHT22;69690;48.158;17.134;2023-07-09T14:29:48;35.30;26.20
80380;DHT22;69690;48.158;17.134;2023-07-09T14:34:49;35.50;26.00
80380;DHT22;69690;48.158;17.134;2023-07-09T14:39:51;35.30;26.30
80380;DHT22;69690;48.158;17.134;2023-07-09T14:44:52;35.00;26.20
80380;DHT22;69690;48.158;17.134;2023-07-09T14:49:54;34.70;26.00
80380;DHT22;69690;48.158;17.134;2023-07-09T14:54:55;34.80;26.60
80380;DHT22;69690;48.158;17.134;2023-07-09T14:59:57;34.60;26.30
80380;DHT22;69690;48.158;17.134;2023-07-09T15:05:09;34.90;26.00
80380;DHT22;69690;48.158;17.134;2023-07-09T15:10:25;33.90;26.50
80380;DHT22;69690;48.158;17.134;2023-07-09T15:15:31;33.70;26.20
80380;DHT22;69690;48.158;17.134;2023-07-09T15:20:32;33.50;26.50
80380;DHT22;69690;48.158;17.134;2023-07-09T15:25:33;33.80;26.90
80380;DHT22;69690;48.158;17.134;2023-07-09T15:30:34;33.60;27.10
80380;DHT22;69690;48.158;17.134;2023-07-09T15:35:37;33.70;27.20
80380;DHT22;69690;48.158;17.134;2023-07-09T15:40:39;33.60;27.20
80380;DHT22;69690;48.158;17.134;2023-07-09T15:45:43;33.50;27.20
80380;DHT22;69690;48.158;17.134;2023-07-09T15:50:46;33.30;27.50
80380;DHT22;69690;48.158;17.134;2023-07-09T15:55:47;33.20;27.90
80380;DHT22;69690;48.158;17.134;2023-07-09T16:00:49;33.50;28.00
80380;DHT22;69690;48.158;17.134;2023-07-09T16:05:51;33.40;27.50
80380;DHT22;69690;48.158;17.134;2023-07-09T16:10:52;33.70;27.20
80380;DHT22;69690;48.158;17.134;2023-07-09T16:15:54;33.70;27.10
80380;DHT22;69690;48.158;17.134;2023-07-09T16:20:55;34.00;27.20
80380;DHT22;69690;48.158;17.134;2023-07-09T16:25:57;33.80;27.20
80380;DHT22;69690;48.158;17.134;2023-07-09T16:30:58;33.50;27.20
80380;DHT22;69690;48.158;17.134;2023-07-09T16:35:59;33.30;27.60
80380;DHT22;69690;48.158;17.134;2023-07-09T16:41:04;33.20;27.40
80380;DHT22;69690;48.158;17.134;2023-07-09T16:46:18;33.00;27.50
80380;DHT22;69690;48.158;17.134;2023-07-09T16:51:21;32.90;28.00
80380;DHT22;69690;48.158;17.134;2023-07-09T16:56:22;32.90;28.00
80380;DHT22;69690;48.158;17.134;2023-07-09T17:01:24;32.70;28.00
80380;DHT22;69690;48.158;17.134;2023-07-09T17:06:25;32.70;28.30
80380;DHT22;69690;48.158;17.134;2023-07-09T17:11:26;32.60;28.10
80380;DHT22;69690;48.158;17.134;2023-07-09T17:16:30;32.50;28.00
80380;DHT22;69690;48.158;17.134;2023-07-09T17:21:35;32.40;28.00
80380;DHT22;69690;48.158;17.134;2023-07-09T17:26:36;32.40;28.30
80380;DHT22;69690;48.158;17.134;2023-07-09T17:31:37;32.40;28.40
80380;DHT22;69690;48.158;17.134;2023-07-09T17:36:38;32.30;28.60
80380;DHT22;69690;48.158;17.134;2023-07-09T17:41:40;32.20;28.50
80380;DHT22;69690;48.158;17.134;2023-07-09T17:46:41;32.10;28.50
80380;DHT22;69690;48.158;17.134;2023-07-09T17:51:43;32.00;28.70
80380;DHT22;69690;48.158;17.134;2023-07-09T17:56:46;32.00;28.80
80380;DHT22;69690;48.158;17.134;2023-07-09T18:01:54;32.10;28.80
80380;DHT22;69690;48.158;17.134;2023-07-09T18:07:01;32.40;28.50
80380;DHT22;69690;48.158;17.134;2023-07-09T18:12:18;32.40;28.80
80380;DHT22;69690;48.158;17.134;2023-07-09T18:17:25;32.40;28.70
80380;DHT22;69690;48.158;17.134;2023-07-09T18:22:30;32.40;28.40
80380;DHT22;69690;48.158;17.134;2023-07-09T18:27:35;32.30;28.60
80380;DHT22;69690;48.158;17.134;2023-07-09T18:32:38;32.00;29.00
80380;DHT22;69690;48.158;17.134;2023-07-09T18:37:39;31.70;30.00
80380;DHT22;69690;48.158;17.134;2023-07-09T18:42:40;31.50;30.80
80380;DHT22;69690;48.158;17.134;2023-07-09T18:47:42;31.20;31.50
80380;DHT22;69690;48.158;17.134;2023-07-09T18:52:43;31.10;31.40
80380;DHT22;69690;48.158;17.134;2023-07-09T18:57:45;31.10;31.80
80380;DHT22;69690;48.158;17.134;2023-07-09T19:02:49;31.00;32.20
80380;DHT22;69690;48.158;17.134;2023-07-09T19:07:57;30.90;32.60
80380;DHT22;69690;48.158;17.134;2023-07-09T19:13:06;30.60;32.40
80380;DHT22;69690;48.158;17.134;2023-07-09T19:18:34;30.60;32.40
80380;DHT22;69690;48.158;17.134;2023-07-09T19:23:35;30.50;32.60
80380;DHT22;69690;48.158;17.134;2023-07-09T19:28:37;30.40;33.50
80380;DHT22;69690;48.158;17.134;2023-07-09T19:33:39;30.20;34.70
80380;DHT22;69690;48.158;17.134;2023-07-09T19:38:41;30.00;34.70
80380;DHT22;69690;48.158;17.134;2023-07-09T19:43:42;29.80;35.00
80380;DHT22;69690;48.158;17.134;2023-07-09T19:48:43;29.60;35.30
80380;DHT22;69690;48.158;17.134;2023-07-09T19:53:45;29.60;36.10
80380;DHT22;69690;48.158;17.134;2023-07-09T19:58:46;29.40;36.40
80380;DHT22;69690;48.158;17.134;2023-07-09T20:03:47;29.20;37.20
80380;DHT22;69690;48.158;17.134;2023-07-09T20:08:49;29.00;36.90
80380;DHT22;69690;48.158;17.134;2023-07-09T20:13:50;28.90;37.90
80380;DHT22;69690;48.158;17.134;2023-07-09T20:18:53;28.60;38.40
80380;DHT22;69690;48.158;17.134;2023-07-09T20:23:55;28.50;38.90
80380;DHT22;69690;48.158;17.134;2023-07-09T20:28:57;28.30;39.40
80380;DHT22;69690;48.158;17.134;2023-07-09T20:34:28;28.20;39.60
80380;DHT22;69690;48.158;17.134;2023-07-09T20:39:29;28.10;39.80
80380;DHT22;69690;48.158;17.134;2023-07-09T20:44:34;27.90;40.20
80380;DHT22;69690;48.158;17.134;2023-07-09T20:49:36;27.80;40.70
80380;DHT22;69690;48.158;17.134;2023-07-09T20:54:38;27.60;41.00
80380;DHT22;69690;48.158;17.134;2023-07-09T20:59:40;27.40;41.60
80380;DHT22;69690;48.158;17.134;2023-07-09T21:04:41;27.20;41.60
80380;DHT22;69690;48.158;17.134;2023-07-09T21:09:42;27.20;41.70
80380;DHT22;69690;48.158;17.134;2023-07-09T21:14:44;27.00;41.60
80380;DHT22;69690;48.158;17.134;2023-07-09T21:19:45;26.90;41.70
80380;DHT22;69690;48.158;17.134;2023-07-09T21:24:49;27.00;41.90
80380;DHT22;69690;48.158;17.134;2023-07-09T21:29:51;26.70;42.40
80380;DHT22;69690;48.158;17.134;2023-07-09T21:34:53;26.50;42.60
80380;DHT22;69690;48.158;17.134;2023-07-09T21:39:56;26.40;42.80
80380;DHT22;69690;48.158;17.134;2023-07-09T21:44:57;26.20;43.10
80380;DHT22;69690;48.158;17.134;2023-07-09T21:49:58;26.10;43.50
80380;DHT22;69690;48.158;17.134;2023-07-09T21:54:59;26.00;43.90
80380;DHT22;69690;48.158;17.134;2023-07-09T22:00:01;25.90;46.50
80380;DHT22;69690;48.158;17.134;2023-07-09T22:10:19;25.90;48.60
80380;DHT22;69690;48.158;17.134;2023-07-09T22:15:26;25.90;49.50
80380;DHT22;69690;48.158;17.134;2023-07-09T22:20:28;25.80;48.30
80380;DHT22;69690;48.158;17.134;2023-07-09T22:25:30;25.70;46.70
80380;DHT22;69690;48.158;17.134;2023-07-09T22:30:33;25.60;46.50
80380;DHT22;69690;48.158;17.134;2023-07-09T22:35:34;25.50;46.40
80380;DHT22;69690;48.158;17.134;2023-07-09T22:40:36;25.50;46.60
80380;DHT22;69690;48.158;17.134;2023-07-09T22:45:37;25.40;46.80
80380;DHT22;69690;48.158;17.134;2023-07-09T22:50:38;25.30;47.00
80380;DHT22;69690;48.158;17.134;2023-07-09T22:55:44;25.30;47.00
80380;DHT22;69690;48.158;17.134;2023-07-09T23:00:53;25.20;47.30
80380;DHT22;69690;48.158;17.134;2023-07-09T23:05:56;25.20;47.90
80380;DHT22;69690;48.158;17.134;2023-07-09T23:10:58;25.10;47.90
80380;DHT22;69690;48.158;17.134;2023-07-09T23:16:01;25.00;48.00
80380;DHT22;69690;48.158;17.134;2023-07-09T23:21:02;25.00;48.30
80380;DHT22;69690;48.158;17.134;2023-07-09T23:26:04;24.90;49.30
80380;DHT22;69690;48.158;17.134;2023-07-09T23:31:05;24.70;49.60
80380;DHT22;69690;48.158;17.134;2023-07-09T23:36:09;24.70;49.90
80380;DHT22;69690;48.158;17.134;2023-07-09T23:46:31;24.50;50.10
80380;DHT22;69690;48.158;17.134;2023-07-09T23:51:33;24.50;50.20
80380;DHT22;69690;48.158;17.134;2023-07-09T23:56:35;24.50;50.20
